Abbott
UTM 11U Easting = 46 4305, Northing = 56 77958     Elevation = 2130 m
Note to Users: This site contains raw data and is presented "as is" and in real time. Although reasonable care is exercised in providing this information, inaccuracies or omissions may occur due to the properties of weather and data collection systems. The Avalanche Control Section, responsible for its collection, disclaims all responsibility for the accuracy of the information.
Date Max Temp (deg C) Min Temp (deg C) Rel Hum (%) 1 Hr Precip (mm) HS (cm) Wind Dir (1 Hr Avg) Wind Spd (kph) (1 Hr Avg) Max Wind Speed (kph)
2018-04-25 06:00 3 1 41 0.0 245 SW 8 26
2018-04-25 07:00 4 2 38 0.0 245 SE 5 17
2018-04-25 08:00 5 3 39 0.0 244 S 3 9
2018-04-25 09:00 5 3 35 0.0 245 N 3 11
2018-04-25 10:00 5 3 36 0.0 244 NW 6 19
2018-04-25 11:00 5 3 34 0.0 243 NW 5 14
2018-04-25 12:00 6 4 32 0.0 243 W 5 12
2018-04-25 13:00 6 4 32 0.0 242 N 6 18
2018-04-25 14:00 6 5 32 0.0 242 E 6 16
2018-04-25 15:00 7 5 30 0.0 241 N 7 20
2018-04-25 16:00 6 5 31 0.0 241 NW 6 15
2018-04-25 17:00 6 4 34 1.4 241 SW 6 11
2018-04-25 18:00 6 3 36 0.0 241 SW 4 11
2018-04-25 19:00 4 3 40 0.0 240 SW 5 13
2018-04-25 20:00 4 2 40 0.0 240 S 4 10
2018-04-25 21:00 4 3 39 0.0 240 W 4 8
2018-04-25 22:00 4 2 40 0.0 240 SW 5 9
2018-04-25 23:00 3 2 41 0.0 239 SW 5 10
2018-04-26 00:00 4 2 40 0.0 239 S 6 10
2018-04-26 01:00 3 2 41 0.0 239 SW 5 10
2018-04-26 02:00 3 2 41 0.0 239 SW 4 9
2018-04-26 03:00 3 2 42 0.0 239 SW 5 10
2018-04-26 04:00 3 2 43 0.0 239 SW 3 8